Time;durP1;ratioP1;P1;durP2;ratioP2;P2;SDS_P1;SDS_P2;PMS_P1;PMS_P2;Temp;Humidity;BMP_temperature;BMP_pressure;BME280_temperature;BME280_humidity;BME280_pressure;Samples;Min_cycle;Max_cycle;Signal;HPM_P1;HPM_P2
2021/09/01 00:00:35;;;;;;;17.75;9.77;;;;;;;9.59;94.80;99401.31;5052881;28;20024;-88
2021/09/01 00:03:01;;;;;;;20.58;10.45;;;;;;;9.60;94.47;99403.03;5064329;28;20096;-88
2021/09/01 00:05:26;;;;;;;21.15;10.88;;;;;;;9.58;94.65;99399.53;5062923;28;20057;-88
2021/09/01 00:07:52;;;;;;;22.83;11.80;;;;;;;9.49;94.95;99389.94;5063228;28;20029;-88
2021/09/01 00:10:18;;;;;;;29.38;12.55;;;;;;;9.48;95.31;99397.81;5063250;28;20052;-88
2021/09/01 00:12:44;;;;;;;26.92;12.38;;;;;;;9.43;95.21;99397.81;5062947;28;20027;-88
2021/09/01 00:15:11;;;;;;;25.33;11.82;;;;;;;9.35;95.04;99401.34;5063177;28;20052;-88
2021/09/01 00:17:37;;;;;;;20.13;11.00;;;;;;;9.43;94.79;99400.44;5062725;28;20084;-88
2021/09/01 00:20:05;;;;;;;22.15;10.88;;;;;;;9.35;94.14;99401.34;5062936;28;20040;-88
2021/09/01 00:22:30;;;;;;;23.88;11.63;;;;;;;9.24;94.76;99403.16;5062945;28;20040;-88
2021/09/01 00:24:56;;;;;;;17.13;10.43;;;;;;;9.26;95.42;99396.13;5064041;28;20045;-88
2021/09/01 00:27:21;;;;;;;16.92;10.13;;;;;;;9.31;95.71;99399.63;5062816;28;20021;-88
2021/09/01 00:29:47;;;;;;;19.58;10.20;;;;;;;9.23;95.68;99396.13;5062898;28;20223;-88
2021/09/01 00:32:13;;;;;;;19.20;10.35;;;;;;;9.25;95.49;99399.63;5062796;28;20032;-88
2021/09/01 00:34:38;;;;;;;20.25;10.00;;;;;;;9.20;95.66;99406.66;5062590;28;20023;-88
2021/09/01 00:37:04;;;;;;;16.63;10.07;;;;;;;9.28;95.89;99390.00;5062703;28;20017;-88
2021/09/01 00:39:29;;;;;;;17.17;9.75;;;;;;;9.30;95.82;99392.63;5062476;28;20025;-88
2021/09/01 00:42:02;;;;;;;19.65;9.95;;;;;;;9.32;95.29;99401.38;5062731;28;20025;-88
2021/09/01 00:44:28;;;;;;;17.98;10.32;;;;;;;9.18;94.70;99387.41;5062427;28;20017;-88
2021/09/01 00:46:54;;;;;;;18.13;9.68;;;;;;;9.15;94.72;99405.78;5062576;28;20009;-88
2021/09/01 00:49:21;;;;;;;24.33;10.98;;;;;;;9.05;95.00;99401.44;5062588;28;20283;-88
2021/09/01 00:51:50;;;;;;;24.65;10.75;;;;;;;8.98;94.76;99399.69;5062310;28;20062;-88
2021/09/01 00:54:20;;;;;;;21.23;12.20;;;;;;;9.09;95.25;99400.53;5063634;28;20262;-88
2021/09/01 00:56:52;;;;;;;19.58;10.27;;;;;;;8.97;95.11;99397.91;5062406;28;20370;-88
2021/09/01 00:59:20;;;;;;;21.17;10.52;;;;;;;8.95;95.75;99395.28;5062354;28;20110;-88
2021/09/01 01:01:47;;;;;;;17.90;10.25;;;;;;;8.99;95.56;99399.69;5063252;28;20100;-88
2021/09/01 01:04:12;;;;;;;21.83;10.18;;;;;;;9.05;95.24;99396.16;5040486;23;20265;-69
2021/09/01 01:06:37;;;;;;;20.85;9.93;;;;;;;8.97;95.44;99395.28;5043315;28;20059;-69
2021/09/01 01:09:03;;;;;;;27.67;11.10;;;;;;;8.87;95.37;99385.69;5043447;28;20017;-69
2021/09/01 01:11:28;;;;;;;22.23;10.88;;;;;;;8.93;95.29;99401.44;5043543;28;20067;-69
2021/09/01 01:13:54;;;;;;;24.13;11.20;;;;;;;8.80;94.72;99396.19;5043482;28;20017;-69
2021/09/01 01:16:24;;;;;;;20.05;9.18;;;;;;;8.82;95.09;99397.06;5042926;28;20022;-69
2021/09/01 01:18:51;;;;;;;20.75;10.80;;;;;;;8.61;96.07;99389.19;5042643;28;20025;-69
2021/09/01 01:21:18;;;;;;;21.58;11.15;;;;;;;8.70;96.62;99394.44;5043344;28;20017;-70
2021/09/01 01:23:44;;;;;;;26.63;12.65;;;;;;;8.73;96.66;99393.53;5042896;28;20216;-69
2021/09/01 01:26:10;;;;;;;25.50;11.00;;;;;;;8.76;96.12;99398.81;5043105;28;20021;-69
2021/09/01 01:28:36;;;;;;;21.80;9.98;;;;;;;8.67;96.00;99394.44;5017131;28;20048;-69
2021/09/01 01:31:01;;;;;;;16.38;7.72;;;;;;;8.70;95.50;99399.69;5043192;28;20013;-69
2021/09/01 01:33:27;;;;;;;18.40;9.27;;;;;;;8.60;95.02;99400.56;5043036;28;20017;-69
2021/09/01 01:35:52;;;;;;;18.50;9.52;;;;;;;8.53;95.36;99396.19;5025126;28;20021;-69
2021/09/01 01:38:19;;;;;;;25.13;10.57;;;;;;;8.54;95.19;99397.94;5043178;28;20199;-69
2021/09/01 01:40:46;;;;;;;22.73;9.20;;;;;;;8.53;95.56;99395.31;5043217;28;20309;-69
2021/09/01 01:43:12;;;;;;;13.30;8.00;;;;;;;8.63;94.91;99403.19;5042945;28;20017;-69
2021/09/01 01:45:43;;;;;;;18.60;10.05;;;;;;;8.47;95.28;99401.44;5042823;28;20024;-69
2021/09/01 01:48:10;;;;;;;15.18;8.10;;;;;;;8.43;95.15;99399.69;5043115;28;20021;-69
2021/09/01 01:50:38;;;;;;;14.55;8.23;;;;;;;8.54;94.99;99403.19;5042902;28;20029;-69
2021/09/01 01:53:05;;;;;;;16.00;8.80;;;;;;;8.50;94.61;99404.06;5045392;28;20025;-69
2021/09/01 01:55:31;;;;;;;17.45;9.15;;;;;;;8.46;95.75;99399.69;5046944;28;20249;-69
2021/09/01 01:57:56;;;;;;;18.45;9.70;;;;;;;8.51;95.12;99408.41;5046576;28;20032;-69
2021/09/01 02:00:21;;;;;;;15.55;8.23;;;;;;;8.53;95.03;99398.81;5046678;28;20017;-69
2021/09/01 02:02:47;;;;;;;18.67;10.15;;;;;;;8.52;94.48;99404.06;5044949;28;20057;-69
2021/09/01 02:05:12;;;;;;;18.67;9.18;;;;;;;8.41;95.00;99406.66;5044100;28;20021;-69
2021/09/01 02:07:39;;;;;;;15.85;8.68;;;;;;;8.29;94.35;99401.38;5042594;28;20017;-69
2021/09/01 02:10:06;;;;;;;15.32;8.50;;;;;;;8.37;94.93;99397.03;5025610;28;20029;-69
2021/09/01 02:12:32;;;;;;;14.57;8.45;;;;;;;8.38;94.85;99400.53;5029488;28;20028;-69
2021/09/01 02:15:02;;;;;;;16.08;8.10;;;;;;;8.41;94.78;99390.91;5031662;28;21181;-69
2021/09/01 02:17:28;;;;;;;15.55;8.45;;;;;;;8.38;94.79;99390.91;5043646;28;20044;-69
2021/09/01 02:19:54;;;;;;;12.60;7.75;;;;;;;8.22;94.60;99389.13;5035977;28;20316;-69
2021/09/01 02:22:21;;;;;;;14.85;8.38;;;;;;;8.21;94.86;99395.22;5030368;28;20033;-69
2021/09/01 02:24:47;;;;;;;16.30;8.68;;;;;;;8.21;94.62;99395.22;5040819;28;20029;-69
2021/09/01 02:27:13;;;;;;;17.63;8.35;;;;;;;8.23;94.23;99396.13;5029295;28;20029;-69
2021/09/01 02:29:38;;;;;;;14.77;8.98;;;;;;;8.29;94.65;99395.28;5026049;28;20033;-69
2021/09/01 02:32:04;;;;;;;16.45;8.52;;;;;;;8.30;94.58;99403.16;5036742;28;20251;-69
2021/09/01 02:34:30;;;;;;;16.80;8.23;;;;;;;8.26;94.67;99401.38;5030341;28;20194;-69
2021/09/01 02:36:56;;;;;;;17.02;8.95;;;;;;;8.16;94.75;99399.56;5030072;28;20092;-69
2021/09/01 02:39:22;;;;;;;17.33;9.15;;;;;;;8.16;94.84;99398.69;5028975;28;20018;-69
2021/09/01 02:41:47;;;;;;;18.48;9.70;;;;;;;8.08;94.73;99406.56;5035321;28;20021;-69
2021/09/01 02:44:13;;;;;;;17.50;8.27;;;;;;;8.12;94.48;99408.31;5029613;28;20055;-69
2021/09/01 02:46:38;;;;;;;14.27;8.10;;;;;;;8.10;94.97;99414.44;5034162;28;20028;-69
2021/09/01 02:49:03;;;;;;;16.60;8.43;;;;;;;8.09;94.53;99424.03;5035421;28;20325;-69
2021/09/01 02:51:29;;;;;;;14.57;7.93;;;;;;;8.09;94.79;99413.56;5029502;28;20079;-69
2021/09/01 02:53:54;;;;;;;13.20;8.38;;;;;;;8.10;94.61;99420.53;5038764;28;20021;-69
2021/09/01 02:56:20;;;;;;;19.02;9.85;;;;;;;7.99;94.41;99427.50;5030432;28;20022;-69
2021/09/01 02:58:45;;;;;;;17.02;9.65;;;;;;;7.97;94.53;99431.84;5027020;28;20041;-69
2021/09/01 03:01:11;;;;;;;16.55;8.20;;;;;;;7.83;94.37;99430.94;5042895;28;20085;-69
2021/09/01 03:03:36;;;;;;;18.02;9.05;;;;;;;7.91;95.04;99429.22;5042078;28;20048;-69
2021/09/01 03:06:02;;;;;;;16.45;8.68;;;;;;;7.88;94.59;99429.19;5032365;28;20017;-69
2021/09/01 03:08:27;;;;;;;12.60;7.88;;;;;;;7.87;94.96;99427.47;5032617;28;20021;-69
2021/09/01 03:10:52;;;;;;;11.85;7.25;;;;;;;7.94;94.96;99434.47;5042478;28;20033;-69
2021/09/01 03:13:18;;;;;;;12.23;7.25;;;;;;;8.01;95.00;99424.91;5033954;28;20085;-69
2021/09/01 03:15:43;;;;;;;17.67;9.40;;;;;;;7.85;94.81;99429.19;5034499;28;20097;-69
2021/09/01 03:18:09;;;;;;;15.45;8.15;;;;;;;7.91;94.98;99434.44;5024118;28;20013;-69
2021/09/01 03:20:34;;;;;;;16.73;8.90;;;;;;;8.00;95.69;99434.50;5036221;28;20316;-69
2021/09/01 03:23:00;;;;;;;13.88;8.10;;;;;;;7.82;94.82;99423.94;5026599;28;20021;-69
2021/09/01 03:25:25;;;;;;;16.52;8.23;;;;;;;7.88;94.80;99429.19;5043360;28;20080;-69
2021/09/01 03:27:51;;;;;;;13.63;7.97;;;;;;;7.82;94.30;99425.69;5035971;28;20014;-69
2021/09/01 03:30:16;;;;;;;12.27;7.22;;;;;;;7.76;94.52;99423.94;5028914;28;20293;-69
2021/09/01 03:32:42;;;;;;;14.15;8.07;;;;;;;7.85;94.77;99418.69;5030863;28;20067;-69
2021/09/01 03:35:07;;;;;;;14.63;8.25;;;;;;;7.70;94.62;99423.91;5042245;28;20048;-69
2021/09/01 03:37:33;;;;;;;13.88;7.57;;;;;;;7.65;94.75;99419.47;5035658;28;20021;-69
2021/09/01 03:39:59;;;;;;;12.38;7.40;;;;;;;7.67;94.71;99423.88;5028935;28;20018;-69
2021/09/01 03:42:24;;;;;;;12.95;7.57;;;;;;;7.72;94.97;99419.53;5034254;28;20017;-69
2021/09/01 03:44:50;;;;;;;13.80;7.63;;;;;;;7.73;94.86;99418.69;5034515;28;20029;-69
2021/09/01 03:47:15;;;;;;;19.20;8.45;;;;;;;7.77;95.19;99425.66;5030997;28;20047;-69
2021/09/01 03:49:41;;;;;;;13.40;7.80;;;;;;;7.71;94.69;99423.03;5023738;28;20017;-69
2021/09/01 03:52:06;;;;;;;11.43;7.15;;;;;;;7.76;94.83;99413.44;5038241;28;20339;-69
2021/09/01 03:54:31;;;;;;;11.88;6.50;;;;;;;7.60;94.77;99421.22;5031682;28;20013;-69
2021/09/01 03:56:57;;;;;;;13.15;7.78;;;;;;;7.66;95.06;99427.34;5034135;28;20021;-69
2021/09/01 03:59:22;;;;;;;15.10;9.15;;;;;;;7.43;95.47;99434.22;5040130;28;20045;-69
2021/09/01 04:01:48;;;;;;;18.75;9.75;;;;;;;7.43;96.30;99434.22;5041731;28;20023;-69
2021/09/01 04:04:13;;;;;;;16.23;8.75;;;;;;;7.53;96.08;99430.78;5041515;28;20355;-69
2021/09/01 04:06:38;;;;;;;19.83;9.98;;;;;;;7.51;95.61;99432.53;5034128;28;20010;-69
2021/09/01 04:09:04;;;;;;;13.65;8.00;;;;;;;7.55;95.74;99431.69;5030273;28;20093;-69
2021/09/01 04:11:30;;;;;;;18.17;8.57;;;;;;;7.59;95.68;99441.28;5040490;28;20272;-69
2021/09/01 04:13:56;;;;;;;17.10;8.02;;;;;;;7.56;95.05;99441.28;5026894;28;20085;-69
2021/09/01 04:16:21;;;;;;;13.98;7.63;;;;;;;7.53;94.67;99451.72;5025943;28;20032;-69
2021/09/01 04:18:47;;;;;;;15.70;8.70;;;;;;;7.55;94.59;99450.00;5026436;28;20079;-69
2021/09/01 04:21:12;;;;;;;15.02;8.93;;;;;;;7.48;94.35;99448.22;5033438;28;20028;-69
2021/09/01 04:23:37;;;;;;;17.38;8.15;;;;;;;7.57;94.44;99450.91;5029932;28;20343;-69
2021/09/01 04:26:03;;;;;;;16.77;8.48;;;;;;;7.58;94.50;99444.78;5034673;28;20213;-69
2021/09/01 04:28:29;;;;;;;19.25;9.75;;;;;;;7.42;93.96;99449.94;5026986;28;20080;-69
2021/09/01 04:30:54;;;;;;;15.27;8.60;;;;;;;7.49;94.43;99455.22;5030640;28;20025;-69
2021/09/01 04:33:20;;;;;;;16.15;8.57;;;;;;;7.47;94.58;99456.94;5039165;28;20041;-69
2021/09/01 04:35:45;;;;;;;15.65;9.02;;;;;;;7.34;94.43;99455.13;5041823;28;20048;-69
2021/09/01 04:38:10;;;;;;;16.52;9.27;;;;;;;7.34;94.75;99455.13;5041082;28;20080;-69
2021/09/01 04:40:36;;;;;;;16.33;8.88;;;;;;;7.34;94.97;99455.13;5031322;28;20388;-69
2021/09/01 04:43:01;;;;;;;15.18;8.65;;;;;;;7.42;95.38;99458.66;5023170;28;20026;-69
2021/09/01 04:45:27;;;;;;;16.35;8.65;;;;;;;7.45;95.27;99463.94;5024551;28;20033;-69
2021/09/01 04:47:53;;;;;;;15.65;8.88;;;;;;;7.47;94.58;99456.09;5024479;28;20193;-69
2021/09/01 04:50:18;;;;;;;15.60;7.93;;;;;;;7.50;94.66;99458.72;5024459;28;20021;-69
2021/09/01 04:52:43;;;;;;;12.07;7.10;;;;;;;7.56;94.21;99459.63;5024446;28;20076;-69
2021/09/01 04:55:09;;;;;;;11.25;7.35;;;;;;;7.57;94.46;99457.88;5024380;28;20025;-69
2021/09/01 04:57:35;;;;;;;19.55;8.85;;;;;;;7.54;94.67;99461.38;5024240;28;20036;-69
2021/09/01 05:00:01;;;;;;;15.55;7.90;;;;;;;7.57;94.07;99452.63;5024330;28;20216;-69
2021/09/01 05:02:26;;;;;;;12.63;8.13;;;;;;;7.39;94.66;99458.66;5025354;28;20030;-69
2021/09/01 05:04:52;;;;;;;11.88;7.63;;;;;;;7.50;94.55;99449.09;5044034;28;20035;-69
2021/09/01 05:07:17;;;;;;;12.13;7.25;;;;;;;7.59;94.42;99457.00;5044024;28;20124;-69
2021/09/01 05:09:43;;;;;;;15.65;7.25;;;;;;;7.69;94.34;99452.72;5043932;28;20044;-69
2021/09/01 05:12:09;;;;;;;11.80;7.28;;;;;;;7.70;94.71;99457.06;5026288;28;20028;-69
2021/09/01 05:14:34;;;;;;;12.15;7.07;;;;;;;7.79;94.30;99457.13;5043863;28;20316;-69
2021/09/01 05:16:59;;;;;;;12.90;7.72;;;;;;;7.85;94.07;99455.38;5043765;28;20045;-69
2021/09/01 05:19:25;;;;;;;11.90;7.32;;;;;;;7.87;93.60;99464.16;5043809;28;20018;-69
2021/09/01 05:21:52;;;;;;;13.45;7.13;;;;;;;7.88;93.20;99455.41;5043833;28;20340;-69
2021/09/01 05:24:29;;;;;;;8.77;6.05;;;;;;;7.91;93.38;99458.03;5043860;28;20022;-69
2021/09/01 05:27:24;;;;;;;9.32;6.38;;;;;;;7.90;93.70;99458.91;5046316;28;20041;-69
2021/09/01 05:29:51;;;;;;;14.13;7.00;;;;;;;8.13;93.49;99456.41;5043790;28;20078;-69
2021/09/01 05:32:25;;;;;;;13.20;7.72;;;;;;;8.64;92.27;99461.81;5047820;28;20022;-69
2021/09/01 05:34:53;;;;;;;12.23;7.07;;;;;;;9.09;90.76;99456.56;5047821;28;20032;-69
2021/09/01 05:37:20;;;;;;;15.38;6.88;;;;;;;9.47;88.20;99461.78;5047670;28;20030;-69
2021/09/01 05:39:47;;;;;;;10.15;5.75;;;;;;;9.81;86.94;99456.41;5047703;28;20032;-69
2021/09/01 05:42:16;;;;;;;11.32;6.15;;;;;;;10.15;85.81;99457.19;5047645;28;20025;-69
2021/09/01 05:44:41;;;;;;;13.85;7.72;;;;;;;10.38;83.84;99455.34;5029918;28;20060;-69
2021/09/01 05:47:12;;;;;;;17.63;9.20;;;;;;;10.55;83.52;99453.47;5047525;28;20022;-69
2021/09/01 05:49:38;;;;;;;15.63;7.50;;;;;;;10.76;82.61;99458.59;5047781;28;20103;-69
2021/09/01 05:52:06;;;;;;;17.00;7.85;;;;;;;10.93;81.99;99461.97;5047421;28;20216;-69
2021/09/01 05:54:33;;;;;;;14.82;7.57;;;;;;;11.40;81.73;99462.44;5047386;28;20024;-69
2021/09/01 05:57:35;;;;;;;16.80;8.32;;;;;;;11.67;80.88;99454.28;5047234;28;20025;-69
2021/09/01 06:00:04;;;;;;;18.52;8.70;;;;;;;12.06;78.92;99455.59;5047314;28;20021;-69
2021/09/01 06:02:51;;;;;;;14.43;7.43;;;;;;;12.28;78.90;99457.94;5046995;28;20072;-69
2021/09/01 06:05:18;;;;;;;17.27;8.07;;;;;;;12.66;78.41;99463.56;5047498;28;20091;-69
2021/09/01 06:08:06;;;;;;;16.67;8.05;;;;;;;13.01;75.84;99456.00;5029459;28;20253;-69
2021/09/01 06:10:33;;;;;;;13.52;8.02;;;;;;;13.23;76.25;99467.13;5047165;28;20335;-69
2021/09/01 06:13:06;;;;;;;13.32;7.63;;;;;;;13.30;75.40;99458.19;5047053;28;20089;-69
2021/09/01 06:15:32;;;;;;;11.27;6.72;;;;;;;13.83;74.75;99458.06;5047017;28;20279;-69
2021/09/01 06:17:59;;;;;;;17.30;7.70;;;;;;;14.11;74.35;99466.34;5046922;28;20362;-69
2021/09/01 06:20:26;;;;;;;12.25;7.13;;;;;;;14.63;72.99;99461.72;5046941;28;20028;-69
2021/09/01 06:22:52;;;;;;;13.75;6.85;;;;;;;14.99;71.84;99455.53;5029182;28;20021;-69
2021/09/01 06:25:17;;;;;;;16.77;7.30;;;;;;;15.11;70.83;99458.78;5046819;28;20060;-69
2021/09/01 06:27:43;;;;;;;17.67;8.50;;;;;;;15.35;71.07;99457.31;5046778;28;20017;-69
2021/09/01 06:30:09;;;;;;;19.77;8.98;;;;;;;15.04;71.55;99454.50;5046721;28;20128;-69
2021/09/01 06:32:34;;;;;;;16.27;8.73;;;;;;;15.68;70.44;99450.25;5046703;28;20304;-69
2021/09/01 06:35:00;;;;;;;15.73;9.10;;;;;;;15.75;71.76;99454.53;5046620;28;20031;-69
2021/09/01 06:37:25;;;;;;;14.15;8.82;;;;;;;16.27;70.39;99462.75;5027997;28;20029;-69
2021/09/01 06:39:51;;;;;;;14.98;8.27;;;;;;;16.34;70.02;99462.53;5046584;28;20071;-69
2021/09/01 06:42:18;;;;;;;15.00;8.05;;;;;;;17.07;68.25;99455.84;5046527;28;20028;-69
2021/09/01 06:44:44;;;;;;;15.10;8.05;;;;;;;17.21;68.07;99453.59;5046478;28;20059;-69
2021/09/01 06:47:10;;;;;;;19.35;9.65;;;;;;;17.73;68.79;99466.06;5028758;28;20013;-70
2021/09/01 06:49:35;;;;;;;18.63;9.73;;;;;;;18.30;67.05;99472.84;5046389;28;20028;-70
2021/09/01 06:52:00;;;;;;;17.52;10.57;;;;;;;18.53;66.86;99472.00;5028678;28;20100;-70
2021/09/01 06:54:26;;;;;;;23.25;11.10;;;;;;;18.56;68.04;99475.44;5046291;28;20092;-70
2021/09/01 06:56:51;;;;;;;17.13;10.00;;;;;;;19.29;66.60;99485.91;5028564;28;20025;-70
2021/09/01 06:59:16;;;;;;;19.27;11.05;;;;;;;19.48;66.12;99482.41;5046204;28;20028;-70
2021/09/01 07:01:42;;;;;;;21.88;12.27;;;;;;;19.53;68.18;99482.22;5046156;28;20063;-70
2021/09/01 07:04:07;;;;;;;23.23;12.27;;;;;;;20.15;65.33;99483.94;5045929;28;20239;-70
2021/09/01 07:06:33;;;;;;;22.23;12.18;;;;;;;20.12;65.36;99483.22;5046065;28;20096;-70
2021/09/01 07:08:59;;;;;;;20.95;10.63;;;;;;;20.77;63.94;99486.44;5046030;28;20081;-70
2021/09/01 07:11:24;;;;;;;20.83;11.63;;;;;;;20.72;64.04;99483.09;5045996;28;20251;-70
2021/09/01 07:13:49;;;;;;;21.58;12.68;;;;;;;20.48;63.96;99484.25;5045976;28;20049;-70
2021/09/01 07:16:15;;;;;;;18.95;11.50;;;;;;;20.94;62.16;99487.41;5045809;28;20022;-70
2021/09/01 07:18:41;;;;;;;20.02;11.75;;;;;;;20.95;62.58;99483.78;5045818;28;20378;-70
2021/09/01 07:21:07;;;;;;;18.58;12.13;;;;;;;20.73;63.38;99482.16;5045820;28;20044;-70
2021/09/01 07:23:32;;;;;;;21.42;11.98;;;;;;;20.92;64.21;99489.25;5045779;28;20067;-70
2021/09/01 07:25:58;;;;;;;16.90;10.70;;;;;;;21.29;62.12;99486.56;5045697;28;20092;-70
2021/09/01 07:28:25;;;;;;;20.90;11.65;;;;;;;21.34;62.84;99494.38;5028034;28;20021;-70
2021/09/01 07:30:50;;;;;;;21.48;12.05;;;;;;;21.29;62.58;99493.72;5045590;28;20044;-70
2021/09/01 07:33:16;;;;;;;18.88;11.57;;;;;;;21.96;60.71;99491.25;5027938;28;20375;-70
2021/09/01 07:35:41;;;;;;;19.45;10.48;;;;;;;22.59;59.50;99487.88;5027869;28;20073;-70
2021/09/01 07:38:06;;;;;;;17.58;10.55;;;;;;;22.73;59.89;99493.34;5045406;28;20025;-70
2021/09/01 07:40:32;;;;;;;19.48;11.77;;;;;;;22.58;59.47;99491.50;5045424;28;20033;-70
2021/09/01 07:42:58;;;;;;;18.55;11.13;;;;;;;22.69;60.35;99494.47;5045436;28;20044;-70
2021/09/01 07:45:23;;;;;;;18.33;9.85;;;;;;;22.66;58.72;99489.28;5045330;28;20021;-70
2021/09/01 07:47:50;;;;;;;21.27;10.27;;;;;;;23.08;58.63;99503.00;5045284;28;20013;-70
2021/09/01 07:50:20;;;;;;;15.65;10.43;;;;;;;22.52;60.84;99497.19;5045149;28;20331;-70
2021/09/01 07:52:46;;;;;;;17.05;9.65;;;;;;;23.24;59.79;99501.22;5045500;28;20092;-70
2021/09/01 07:55:12;;;;;;;15.88;8.82;;;;;;;23.69;57.24;99506.63;5045168;28;20025;-70
2021/09/01 07:57:38;;;;;;;16.88;9.85;;;;;;;23.93;57.12;99499.81;5045015;28;20035;-70
2021/09/01 08:00:06;;;;;;;21.02;9.88;;;;;;;23.41;56.41;99511.84;5045023;28;20021;-70
2021/09/01 08:02:31;;;;;;;17.48;9.15;;;;;;;23.73;57.05;99507.31;5027108;28;20036;-70
2021/09/01 08:04:57;;;;;;;16.40;9.80;;;;;;;23.67;55.94;99519.31;5044945;28;20022;-68
2021/09/01 08:07:22;;;;;;;18.65;9.68;;;;;;;23.63;57.06;99509.66;5027320;28;20092;-68
2021/09/01 08:09:48;;;;;;;19.02;10.55;;;;;;;23.78;56.84;99511.47;5044862;28;20022;-68
2021/09/01 08:12:13;;;;;;;14.02;9.43;;;;;;;24.04;54.93;99510.81;5044864;28;20040;-68
2021/09/01 08:14:39;;;;;;;16.17;9.75;;;;;;;24.00;56.73;99511.09;5044841;28;20096;-70
2021/09/01 08:17:04;;;;;;;18.63;9.18;;;;;;;23.74;55.60;99514.44;5044629;28;20028;-70
2021/09/01 08:19:30;;;;;;;17.20;9.88;;;;;;;23.86;56.44;99514.59;5044686;28;20021;-70
2021/09/01 08:21:55;;;;;;;18.10;9.68;;;;;;;23.98;56.43;99513.88;5044697;28;20193;-70
2021/09/01 08:24:20;;;;;;;19.90;9.50;;;;;;;23.83;56.20;99514.75;5044650;28;20028;-70
2021/09/01 08:26:46;;;;;;;17.98;9.55;;;;;;;24.55;55.15;99510.31;5044559;28;20371;-70
2021/09/01 08:29:11;;;;;;;16.58;8.82;;;;;;;24.84;53.39;99525.56;5044544;28;20021;-70
2021/09/01 08:31:37;;;;;;;17.15;9.07;;;;;;;24.72;55.61;99515.59;5044514;28;20215;-70
2021/09/01 08:34:02;;;;;;;15.38;8.70;;;;;;;24.79;54.37;99518.75;5026821;28;20029;-68
2021/09/01 08:36:27;;;;;;;16.17;8.65;;;;;;;24.76;52.50;99522.50;5044343;28;20022;-68
2021/09/01 08:38:53;;;;;;;18.33;9.27;;;;;;;25.15;52.49;99522.66;5044377;28;20021;-70
2021/09/01 08:41:18;;;;;;;18.02;9.30;;;;;;;24.80;53.21;99515.94;5026738;28;20308;-70
2021/09/01 08:43:46;;;;;;;14.55;8.93;;;;;;;24.94;53.04;99523.16;5044322;28;20085;-68
2021/09/01 08:46:12;;;;;;;13.23;8.35;;;;;;;25.09;53.96;99523.03;5044271;28;20021;-68
2021/09/01 08:48:40;;;;;;;13.55;8.85;;;;;;;24.60;55.07;99518.13;5044226;28;20220;-68
2021/09/01 08:51:06;;;;;;;17.52;8.73;;;;;;;25.46;51.86;99523.41;5044200;28;20029;-68
2021/09/01 08:53:31;;;;;;;18.23;9.07;;;;;;;25.19;53.65;99523.34;5044147;28;20033;-68
2021/09/01 08:55:57;;;;;;;13.40;8.63;;;;;;;25.37;52.65;99516.75;5044012;28;20044;-68
2021/09/01 08:58:22;;;;;;;19.50;9.18;;;;;;;25.32;52.07;99521.59;5044106;28;20088;-68
2021/09/01 09:00:47;;;;;;;16.42;9.48;;;;;;;24.92;53.65;99515.19;5043575;28;20017;-68
2021/09/01 09:03:13;;;;;;;15.93;9.48;;;;;;;25.42;50.39;99509.25;5043797;28;20041;-68
2021/09/01 09:05:41;;;;;;;15.40;8.98;;;;;;;25.54;52.94;99512.97;5044007;28;20025;-68
2021/09/01 09:08:12;;;;;;;15.07;8.38;;;;;;;25.56;52.12;99511.03;5043949;28;20018;-68
2021/09/01 09:10:40;;;;;;;15.35;8.73;;;;;;;25.60;52.11;99508.03;5043937;28;20315;-68
2021/09/01 09:13:11;;;;;;;18.13;9.40;;;;;;;25.58;53.08;99519.88;5043921;28;20028;-68
2021/09/01 09:15:38;;;;;;;21.02;8.65;;;;;;;26.48;50.90;99509.13;5043973;28;20263;-68
2021/09/01 09:18:23;;;;;;;16.70;8.52;;;;;;;25.93;51.41;99508.47;5043777;28;20021;-68
2021/09/01 09:20:49;;;;;;;15.55;8.60;;;;;;;26.19;52.39;99498.63;5043896;28;20091;-68
2021/09/01 09:23:29;;;;;;;14.18;8.07;;;;;;;26.23;52.04;99497.44;5043831;28;20379;-68
2021/09/01 09:25:55;;;;;;;17.35;8.15;;;;;;;26.10;49.55;99496.56;5043834;28;20018;-68
2021/09/01 09:28:20;;;;;;;13.88;8.77;;;;;;;26.57;49.59;99504.91;5026173;28;20243;-68
2021/09/01 09:30:46;;;;;;;14.35;7.97;;;;;;;26.64;50.86;99492.75;5043714;28;20384;-68
2021/09/01 09:33:23;;;;;;;11.98;7.43;;;;;;;26.34;51.70;99497.56;5043721;28;20041;-68
2021/09/01 09:35:51;;;;;;;14.80;7.20;;;;;;;25.93;52.15;99489.59;5043644;28;20084;-68
2021/09/01 09:38:41;;;;;;;16.30;8.02;;;;;;;25.51;52.56;99491.59;5043961;28;20075;-68
2021/09/01 09:41:29;;;;;;;13.45;8.15;;;;;;;26.49;52.74;99488.38;5043722;28;20025;-68
2021/09/01 09:43:57;;;;;;;17.30;8.32;;;;;;;26.61;51.24;99483.00;5043743;28;20060;-68
2021/09/01 09:46:23;;;;;;;17.55;6.93;;;;;;;27.01;49.77;99481.00;5043584;28;20036;-68
2021/09/01 09:48:49;;;;;;;16.33;8.30;;;;;;;26.85;49.84;99491.19;5043573;28;20320;-68
2021/09/01 09:51:34;;;;;;;15.07;7.90;;;;;;;26.90;50.04;99483.63;5043553;28;20055;-68
2021/09/01 09:54:13;;;;;;;15.82;8.55;;;;;;;27.09;48.28;99484.88;5043524;28;20055;-68
2021/09/01 09:56:39;;;;;;;11.10;7.00;;;;;;;26.43;51.15;99483.41;5043478;28;20316;-68
2021/09/01 09:59:05;;;;;;;12.05;7.03;;;;;;;26.71;49.75;99494.03;5025859;28;20021;-68
2021/09/01 10:01:31;;;;;;;18.63;7.18;;;;;;;26.27;49.36;99488.16;5043423;28;20346;-68
2021/09/01 10:03:57;;;;;;;15.77;7.40;;;;;;;25.26;53.17;99486.94;5043195;28;20034;-68
2021/09/01 10:06:22;;;;;;;16.38;8.07;;;;;;;24.62;54.41;99484.75;5043434;28;20017;-68
2021/09/01 10:08:50;;;;;;;16.02;8.07;;;;;;;25.02;54.67;99475.91;5043382;28;20021;-68
2021/09/01 10:11:17;;;;;;;16.45;7.25;;;;;;;24.04;56.39;99475.84;5043361;28;20244;-68
2021/09/01 10:13:44;;;;;;;17.40;9.18;;;;;;;23.98;57.77;99470.84;5045295;28;20024;-68
2021/09/01 10:16:15;;;;;;;14.45;8.13;;;;;;;24.20;56.31;99476.66;5046958;28;20021;-68
2021/09/01 10:18:45;;;;;;;13.05;7.13;;;;;;;24.06;57.09;99467.69;5029346;28;20060;-68
2021/09/01 10:21:11;;;;;;;14.45;7.05;;;;;;;23.96;57.63;99482.66;5046900;28;20029;-68
2021/09/01 10:23:42;;;;;;;16.48;7.25;;;;;;;23.59;58.69;99475.00;5046946;28;20315;-68
2021/09/01 10:26:32;;;;;;;19.83;8.43;;;;;;;22.95;59.55;99480.47;5046926;28;20025;-68
2021/09/01 10:29:01;;;;;;;16.27;8.85;;;;;;;22.20;61.18;99468.50;5046861;28;20219;-68
2021/09/01 10:31:34;;;;;;;14.27;8.50;;;;;;;22.30;62.78;99469.78;5029074;28;20144;-68
2021/09/01 10:34:20;;;;;;;16.25;8.27;;;;;;;21.65;63.77;99458.88;5046857;28;20063;-68
2021/09/01 10:36:53;;;;;;;17.27;8.55;;;;;;;22.37;61.97;99465.81;5046589;28;20364;-68
2021/09/01 10:39:27;;;;;;;13.80;7.65;;;;;;;23.27;61.46;99466.13;5046649;28;20051;-68
2021/09/01 10:41:53;;;;;;;18.15;7.68;;;;;;;23.68;58.58;99461.91;5046548;28;20017;-68
2021/09/01 10:44:41;;;;;;;17.58;8.18;;;;;;;24.20;57.73;99455.13;5046505;28;20330;-68
2021/09/01 10:47:07;;;;;;;12.73;6.78;;;;;;;24.90;55.55;99463.22;5046305;28;20026;-68
2021/09/01 10:49:54;;;;;;;12.23;7.15;;;;;;;23.79;57.02;99470.16;5046414;28;20108;-68
2021/09/01 10:52:19;;;;;;;13.90;6.95;;;;;;;23.70;57.79;99465.38;5046365;28;20021;-68
2021/09/01 10:54:46;;;;;;;16.02;7.88;;;;;;;22.82;60.36;99474.06;5046328;28;20071;-68
2021/09/01 10:57:22;;;;;;;14.52;7.65;;;;;;;22.59;61.07;99480.69;5046206;28;20036;-68
2021/09/01 10:59:47;;;;;;;16.10;7.15;;;;;;;22.66;61.00;99470.50;5046203;28;20332;-68
2021/09/01 11:02:16;;;;;;;11.98;7.20;;;;;;;22.57;60.48;99471.00;5046190;28;20032;-68
2021/09/01 11:05:08;;;;;;;11.80;7.35;;;;;;;22.81;59.23;99475.03;5046003;28;20041;-68
2021/09/01 11:07:33;;;;;;;14.80;6.82;;;;;;;22.56;60.12;99467.44;5046178;28;20044;-68
2021/09/01 11:10:00;;;;;;;13.85;7.65;;;;;;;22.21;61.61;99465.75;5046021;28;20021;-68
2021/09/01 11:12:30;;;;;;;15.52;7.53;;;;;;;23.19;60.47;99460.28;5046018;28;20018;-68
2021/09/01 11:14:56;;;;;;;18.88;7.35;;;;;;;23.94;57.39;99466.59;5045952;28;20047;-68
2021/09/01 11:17:22;;;;;;;12.32;6.55;;;;;;;23.12;58.72;99480.38;5045797;28;20048;-68
2021/09/01 11:19:57;;;;;;;13.65;6.38;;;;;;;22.40;61.00;99476.38;5045844;28;20075;-68
2021/09/01 11:22:26;;;;;;;16.15;7.28;;;;;;;22.66;59.36;99473.19;5045844;28;20048;-68
2021/09/01 11:25:02;;;;;;;14.48;6.78;;;;;;;23.90;56.38;99462.34;5045353;28;20025;-68
2021/09/01 11:27:29;;;;;;;16.77;7.72;;;;;;;23.74;57.89;99456.16;5045749;28;20193;-68